PWSweather.com
Personal Weather Stations
Station Observations
LOBIOS
Galicia, LobiosES

GaliciaLobiosES

Lat: 41.895, Lon: -8.091667

Elevation: 1597

Station Type: Automática/Davis Vantage Pro2 Plus

www.meteolobios.es

High Low Average
Temperature 55.6°F13.1°C 33.3°F0.7°C 42.6°F5.9°C
Dew Point 44.6°F7.0°C 31.5°F-0.3°C 38.1°F3.4°C
Winds 11.5 mph 18.5 kmh Calm Calm 2.0 mph E3.2 kmh E
Wind Gusts 13.8 mph22.2 kmh -- 3.0 mph4.8 kmh
Humidity 94% 62% 85%
Pressure 30.43 in1030.5 mb 30.27 in1025.1 mb -
Precipitation 0.00 in0.0 mm - -
Hour Temp Dew Point Humidity Winds Wind Gusts Pressure Precip Precip Rate Daily Precip Total
12:00 AM 39.1°F3.9°C 36.1°F2.3°C 89% 1.1 mph NE1.8 kmh NE 2.3 mph3.7 kmh 30.42 in1030.1 mb - 0.00 in0.0 mm 0.00 in0.0 mm
12:10 AM 38.8°F3.8°C 36.1°F2.3°C 90% 1.1 mph NE1.8 kmh NE 2.3 mph3.7 kmh 30.42 in1030.1 mb - 0.00 in0.0 mm 0.00 in0.0 mm
12:20 AM 38.6°F3.7°C 35.9°F2.2°C 90% 2.3 mph NE3.7 kmh NE 3.5 mph5.6 kmh 30.43 in1030.5 mb - 0.00 in0.0 mm 0.00 in0.0 mm
12:30 AM 38.3°F3.5°C 35.6°F2.0°C 90% Calm Calm 1.1 mph1.8 kmh 30.43 in1030.5 mb - 0.00 in0.0 mm 0.00 in0.0 mm
12:40 AM 38.0°F3.3°C 35.3°F1.8°C 90% Calm Calm -- 30.43 in1030.5 mb - 0.00 in0.0 mm 0.00 in0.0 mm
12:50 AM 37.9°F3.3°C 35.5°F1.9°C 91% Calm Calm -- 30.42 in1030.1 mb - 0.00 in0.0 mm 0.00 in0.0 mm
01:00 AM 37.7°F3.2°C 35.3°F1.8°C 91% Calm Calm -- 30.42 in1030.1 mb - 0.00 in0.0 mm 0.00 in0.0 mm
01:10 AM 37.5°F3.1°C 35.1°F1.7°C 91% 3.5 mph NE5.6 kmh NE 3.5 mph5.6 kmh 30.42 in1030.1 mb - 0.00 in0.0 mm 0.00 in0.0 mm
01:20 AM 37.4°F3.0°C 35.0°F1.7°C 91% 4.6 mph NE7.4 kmh NE 5.8 mph9.3 kmh 30.42 in1030.1 mb - 0.00 in0.0 mm 0.00 in0.0 mm
01:30 AM 37.4°F3.0°C 35.3°F1.8°C 92% 5.8 mph NE9.3 kmh NE 6.9 mph11.1 kmh 30.42 in1030.1 mb - 0.00 in0.0 mm 0.00 in0.0 mm
01:40 AM 37.4°F3.0°C 35.3°F1.8°C 92% 1.1 mph NE1.8 kmh NE 3.5 mph5.6 kmh 30.41 in1029.8 mb - 0.00 in0.0 mm 0.00 in0.0 mm
01:50 AM 37.3°F2.9°C 35.2°F1.8°C 92% Calm Calm -- 30.41 in1029.8 mb - 0.00 in0.0 mm 0.00 in0.0 mm
02:00 AM 37.1°F2.8°C 35.0°F1.7°C 92% Calm Calm -- 30.41 in1029.8 mb - 0.00 in0.0 mm 0.00 in0.0 mm
02:10 AM 36.9°F2.7°C 34.8°F1.6°C 92% Calm Calm -- 30.40 in1029.5 mb - 0.00 in0.0 mm 0.00 in0.0 mm
02:20 AM 36.7°F2.6°C 34.6°F1.4°C 92% Calm Calm -- 30.40 in1029.5 mb - 0.00 in0.0 mm 0.00 in0.0 mm
02:30 AM 36.6°F2.6°C 34.5°F1.4°C 92% Calm Calm -- 30.39 in1029.1 mb - 0.00 in0.0 mm 0.00 in0.0 mm
02:40 AM 36.5°F2.5°C 34.4°F1.3°C 92% Calm Calm -- 30.39 in1029.1 mb - 0.00 in0.0 mm 0.00 in0.0 mm
02:50 AM 36.4°F2.4°C 34.3°F1.3°C 92% 2.3 mph NE3.7 kmh NE 3.5 mph5.6 kmh 30.39 in1029.1 mb - 0.00 in0.0 mm 0.00 in0.0 mm
03:00 AM 36.3°F2.4°C 34.2°F1.2°C 92% 3.5 mph NE5.6 kmh NE 3.5 mph5.6 kmh 30.38 in1028.8 mb - 0.00 in0.0 mm 0.00 in0.0 mm
03:10 AM 36.2°F2.3°C 34.1°F1.2°C 92% 2.3 mph NE3.7 kmh NE 2.3 mph3.7 kmh 30.38 in1028.8 mb - 0.00 in0.0 mm 0.00 in0.0 mm
03:20 AM 36.0°F2.2°C 33.9°F1.1°C 92% 1.1 mph NE1.8 kmh NE 1.1 mph1.8 kmh 30.38 in1028.8 mb - 0.00 in0.0 mm 0.00 in0.0 mm
03:30 AM 35.8°F2.1°C 33.8°F1.0°C 92% 1.1 mph NE1.8 kmh NE 2.3 mph3.7 kmh 30.38 in1028.8 mb - 0.00 in0.0 mm 0.00 in0.0 mm
03:40 AM 35.7°F2.1°C 33.9°F1.1°C 93% Calm Calm -- 30.38 in1028.8 mb - 0.00 in0.0 mm 0.00 in0.0 mm
03:50 AM 35.7°F2.1°C 33.9°F1.1°C 93% Calm Calm 3.5 mph5.6 kmh 30.37 in1028.4 mb - 0.00 in0.0 mm 0.00 in0.0 mm
04:00 AM 35.6°F2.0°C 33.8°F1.0°C 93% 1.1 mph NE1.8 kmh NE 2.3 mph3.7 kmh 30.37 in1028.4 mb - 0.00 in0.0 mm 0.00 in0.0 mm
04:10 AM 35.5°F1.9°C 33.7°F0.9°C 93% 1.1 mph NE1.8 kmh NE 2.3 mph3.7 kmh 30.37 in1028.4 mb - 0.00 in0.0 mm 0.00 in0.0 mm
04:20 AM 35.3°F1.8°C 33.5°F0.8°C 93% Calm Calm -- 30.37 in1028.4 mb - 0.00 in0.0 mm 0.00 in0.0 mm
04:30 AM 35.3°F1.8°C 33.5°F0.8°C 93% Calm Calm 1.1 mph1.8 kmh 30.36 in1028.1 mb - 0.00 in0.0 mm 0.00 in0.0 mm
04:40 AM 35.3°F1.8°C 33.5°F0.8°C 93% Calm Calm 2.3 mph3.7 kmh 30.36 in1028.1 mb - 0.00 in0.0 mm 0.00 in0.0 mm
04:50 AM 35.3°F1.8°C 33.5°F0.8°C 93% Calm Calm -- 30.36 in1028.1 mb - 0.00 in0.0 mm 0.00 in0.0 mm
05:00 AM 35.2°F1.8°C 33.4°F0.8°C 93% Calm Calm -- 30.36 in1028.1 mb - 0.00 in0.0 mm 0.00 in0.0 mm
05:10 AM 35.1°F1.7°C 33.3°F0.7°C 93% Calm Calm -- 30.36 in1028.1 mb - 0.00 in0.0 mm 0.00 in0.0 mm
05:20 AM 35.0°F1.7°C 33.2°F0.7°C 93% Calm Calm -- 30.35 in1027.8 mb - 0.00 in0.0 mm 0.00 in0.0 mm
05:30 AM 34.9°F1.6°C 33.1°F0.6°C 93% 3.5 mph NE5.6 kmh NE 3.5 mph5.6 kmh 30.35 in1027.8 mb - 0.00 in0.0 mm 0.00 in0.0 mm
05:40 AM 35.0°F1.7°C 33.2°F0.7°C 93% 2.3 mph NE3.7 kmh NE 4.6 mph7.4 kmh 30.35 in1027.8 mb - 0.00 in0.0 mm 0.00 in0.0 mm
05:50 AM 34.8°F1.6°C 33.0°F0.6°C 93% 3.5 mph NE5.6 kmh NE 3.5 mph5.6 kmh 30.35 in1027.8 mb - 0.00 in0.0 mm 0.00 in0.0 mm
06:00 AM 34.7°F1.5°C 32.9°F0.5°C 93% 1.1 mph NE1.8 kmh NE 2.3 mph3.7 kmh 30.35 in1027.8 mb - 0.00 in0.0 mm 0.00 in0.0 mm
06:10 AM 34.5°F1.4°C 32.7°F0.4°C 93% 1.1 mph NE1.8 kmh NE 3.5 mph5.6 kmh 30.34 in1027.4 mb - 0.00 in0.0 mm 0.00 in0.0 mm
06:20 AM 34.3°F1.3°C 32.5°F0.3°C 93% 2.3 mph NE3.7 kmh NE 4.6 mph7.4 kmh 30.34 in1027.4 mb - 0.00 in0.0 mm 0.00 in0.0 mm
06:30 AM 34.5°F1.4°C 32.9°F0.5°C 94% 4.6 mph NE7.4 kmh NE 4.6 mph7.4 kmh 30.34 in1027.4 mb - 0.00 in0.0 mm 0.00 in0.0 mm
06:40 AM 34.4°F1.3°C 32.9°F0.5°C 94% 1.1 mph NE1.8 kmh NE 3.5 mph5.6 kmh 30.34 in1027.4 mb - 0.00 in0.0 mm 0.00 in0.0 mm
06:50 AM 34.3°F1.3°C 32.8°F0.4°C 94% Calm Calm 1.1 mph1.8 kmh 30.34 in1027.4 mb - 0.00 in0.0 mm 0.00 in0.0 mm
07:00 AM 34.1°F1.2°C 32.3°F0.2°C 93% Calm Calm 1.1 mph1.8 kmh 30.34 in1027.4 mb - 0.00 in0.0 mm 0.00 in0.0 mm
07:10 AM 34.1°F1.2°C 32.6°F0.3°C 94% Calm Calm -- 30.34 in1027.4 mb - 0.00 in0.0 mm 0.00 in0.0 mm
07:20 AM 34.4°F1.3°C 32.9°F0.5°C 94% Calm Calm -- 30.34 in1027.4 mb - 0.00 in0.0 mm 0.00 in0.0 mm
07:30 AM 34.5°F1.4°C 32.9°F0.5°C 94% 1.1 mph NE1.8 kmh NE 2.3 mph3.7 kmh 30.34 in1027.4 mb - 0.00 in0.0 mm 0.00 in0.0 mm
07:40 AM 34.4°F1.3°C 32.8°F0.4°C 94% 1.1 mph NE1.8 kmh NE 2.3 mph3.7 kmh 30.34 in1027.4 mb - 0.00 in0.0 mm 0.00 in0.0 mm
07:50 AM 34.2°F1.2°C 32.4°F0.2°C 93% 1.1 mph NE1.8 kmh NE 2.3 mph3.7 kmh 30.34 in1027.4 mb - 0.00 in0.0 mm 0.00 in0.0 mm
08:00 AM 34.0°F1.1°C 32.2°F0.1°C 93% Calm Calm -- 30.34 in1027.4 mb - 0.00 in0.0 mm 0.00 in0.0 mm
08:10 AM 33.9°F1.1°C 32.1°F0.1°C 93% Calm Calm -- 30.34 in1027.4 mb - 0.00 in0.0 mm 0.00 in0.0 mm
08:20 AM 33.7°F0.9°C 31.9°F-0.1°C 93% 1.1 mph NE1.8 kmh NE 2.3 mph3.7 kmh 30.34 in1027.4 mb - 0.00 in0.0 mm 0.00 in0.0 mm
08:30 AM 33.7°F0.9°C 31.9°F-0.1°C 93% 3.5 mph NE5.6 kmh NE 3.5 mph5.6 kmh 30.34 in1027.4 mb - 0.00 in0.0 mm 0.00 in0.0 mm
08:40 AM 33.8°F1.0°C 32.0°F0.0°C 93% 3.5 mph NE5.6 kmh NE 3.5 mph5.6 kmh 30.34 in1027.4 mb - 0.00 in0.0 mm 0.00 in0.0 mm
08:50 AM 33.8°F1.0°C 32.0°F0.0°C 93% 2.3 mph NE3.7 kmh NE 3.5 mph5.6 kmh 30.34 in1027.4 mb - 0.00 in0.0 mm 0.00 in0.0 mm
09:00 AM 33.8°F1.0°C 32.0°F0.0°C 93% 1.1 mph NE1.8 kmh NE 1.1 mph1.8 kmh 30.34 in1027.4 mb - 0.00 in0.0 mm 0.00 in0.0 mm
09:10 AM 33.7°F0.9°C 31.9°F-0.1°C 93% Calm Calm -- 30.34 in1027.4 mb - 0.00 in0.0 mm 0.00 in0.0 mm
09:20 AM 33.6°F0.9°C 31.8°F-0.1°C 93% Calm Calm -- 30.35 in1027.8 mb - 0.00 in0.0 mm 0.00 in0.0 mm
09:30 AM 33.5°F0.8°C 31.7°F-0.2°C 93% Calm Calm -- 30.35 in1027.8 mb - 0.00 in0.0 mm 0.00 in0.0 mm
09:40 AM 33.4°F0.8°C 31.6°F-0.2°C 93% Calm Calm 1.1 mph1.8 kmh 30.35 in1027.8 mb - 0.00 in0.0 mm 0.00 in0.0 mm
09:50 AM 33.3°F0.7°C 31.5°F-0.3°C 93% 1.1 mph NE1.8 kmh NE 2.3 mph3.7 kmh 30.36 in1028.1 mb - 0.00 in0.0 mm 0.00 in0.0 mm
10:00 AM 33.4°F0.8°C 31.6°F-0.2°C 93% 2.3 mph NE3.7 kmh NE 3.5 mph5.6 kmh 30.36 in1028.1 mb - 0.00 in0.0 mm 0.00 in0.0 mm
10:10 AM 33.7°F0.9°C 31.9°F-0.1°C 93% Calm Calm 1.1 mph1.8 kmh 30.36 in1028.1 mb - 0.00 in0.0 mm 0.00 in0.0 mm
10:20 AM 33.9°F1.1°C 32.1°F0.1°C 93% Calm Calm -- 30.37 in1028.4 mb - 0.00 in0.0 mm 0.00 in0.0 mm
10:30 AM 34.2°F1.2°C 32.4°F0.2°C 93% 1.1 mph NE1.8 kmh NE 3.5 mph5.6 kmh 30.37 in1028.4 mb - 0.00 in0.0 mm 0.00 in0.0 mm
10:40 AM 34.6°F1.4°C 33.1°F0.6°C 94% 4.6 mph NE7.4 kmh NE 4.6 mph7.4 kmh 30.37 in1028.4 mb - 0.00 in0.0 mm 0.00 in0.0 mm
10:50 AM 35.3°F1.8°C 33.7°F0.9°C 94% 1.1 mph NE1.8 kmh NE 2.3 mph3.7 kmh 30.37 in1028.4 mb - 0.00 in0.0 mm 0.00 in0.0 mm
11:00 AM 35.7°F2.1°C 34.1°F1.2°C 94% Calm Calm -- 30.37 in1028.4 mb - 0.00 in0.0 mm 0.00 in0.0 mm
11:10 AM 36.4°F2.4°C 34.9°F1.6°C 94% Calm Calm -- 30.37 in1028.4 mb - 0.00 in0.0 mm 0.00 in0.0 mm
11:20 AM 37.5°F3.1°C 35.7°F2.1°C 93% Calm Calm -- 30.37 in1028.4 mb - 0.00 in0.0 mm 0.00 in0.0 mm
11:30 AM 37.8°F3.2°C 36.0°F2.2°C 93% Calm Calm -- 30.37 in1028.4 mb - 0.00 in0.0 mm 0.00 in0.0 mm
11:40 AM 39.2°F4.0°C 37.3°F2.9°C 93% Calm Calm -- 30.36 in1028.1 mb - 0.00 in0.0 mm 0.00 in0.0 mm
11:50 AM 40.3°F4.6°C 37.6°F3.1°C 90% Calm Calm -- 30.36 in1028.1 mb - 0.00 in0.0 mm 0.00 in0.0 mm
12:00 PM 41.3°F5.2°C 37.8°F3.2°C 87% Calm Calm -- 30.36 in1028.1 mb - 0.00 in0.0 mm 0.00 in0.0 mm
12:10 PM 42.4°F5.8°C 37.9°F3.3°C 84% Calm Calm -- 30.36 in1028.1 mb - 0.00 in0.0 mm 0.00 in0.0 mm
12:20 PM 43.3°F6.3°C 37.6°F3.1°C 80% Calm Calm -- 30.35 in1027.8 mb - 0.00 in0.0 mm 0.00 in0.0 mm
12:30 PM 46.6°F8.1°C 37.7°F3.2°C 71% Calm Calm -- 30.34 in1027.4 mb - 0.00 in0.0 mm 0.00 in0.0 mm
12:40 PM 49.1°F9.5°C 39.0°F3.9°C 68% Calm Calm -- 30.34 in1027.4 mb - 0.00 in0.0 mm 0.00 in0.0 mm
12:50 PM 49.2°F9.6°C 39.8°F4.3°C 70% Calm Calm -- 30.34 in1027.4 mb - 0.00 in0.0 mm 0.00 in0.0 mm
01:00 PM 49.4°F9.7°C 40.0°F4.4°C 70% Calm Calm -- 30.33 in1027.1 mb - 0.00 in0.0 mm 0.00 in0.0 mm
01:10 PM 51.0°F10.6°C 41.5°F5.3°C 70% Calm Calm -- 30.33 in1027.1 mb - 0.00 in0.0 mm 0.00 in0.0 mm
01:20 PM 52.7°F11.5°C 41.6°F5.3°C 66% Calm Calm -- 30.32 in1026.8 mb - 0.00 in0.0 mm 0.00 in0.0 mm
01:30 PM 52.4°F11.3°C 42.1°F5.6°C 68% Calm Calm -- 30.32 in1026.8 mb - 0.00 in0.0 mm 0.00 in0.0 mm
01:40 PM 52.5°F11.4°C 42.2°F5.7°C 68% Calm Calm -- 30.31 in1026.4 mb - 0.00 in0.0 mm 0.00 in0.0 mm
01:50 PM 52.9°F11.6°C 42.6°F5.9°C 68% 2.3 mph SW3.7 kmh SW 3.5 mph5.6 kmh 30.30 in1026.1 mb - 0.00 in0.0 mm 0.00 in0.0 mm
02:00 PM 53.2°F11.8°C 42.9°F6.1°C 68% 2.3 mph NW3.7 kmh NW 3.5 mph5.6 kmh 30.30 in1026.1 mb - 0.00 in0.0 mm 0.00 in0.0 mm
02:10 PM 53.5°F11.9°C 41.6°F5.3°C 64% 1.1 mph WSW1.8 kmh WSW 3.5 mph5.6 kmh 30.30 in1026.1 mb - 0.00 in0.0 mm 0.00 in0.0 mm
02:20 PM 53.8°F12.1°C 41.5°F5.3°C 63% 1.1 mph WSW1.8 kmh WSW 3.5 mph5.6 kmh 30.30 in1026.1 mb - 0.00 in0.0 mm 0.00 in0.0 mm
02:30 PM 53.9°F12.2°C 41.6°F5.3°C 63% 2.3 mph W3.7 kmh W 3.5 mph5.6 kmh 30.29 in1025.7 mb - 0.00 in0.0 mm 0.00 in0.0 mm
02:40 PM 54.0°F12.2°C 42.5°F5.8°C 65% 2.3 mph WNW3.7 kmh WNW 4.6 mph7.4 kmh 30.28 in1025.4 mb - 0.00 in0.0 mm 0.00 in0.0 mm
02:50 PM 54.2°F12.3°C 42.6°F5.9°C 65% 1.1 mph NW1.8 kmh NW 1.1 mph1.8 kmh 30.28 in1025.4 mb - 0.00 in0.0 mm 0.00 in0.0 mm
03:00 PM 54.6°F12.6°C 42.7°F5.9°C 64% 1.1 mph WSW1.8 kmh WSW 3.5 mph5.6 kmh 30.28 in1025.4 mb - 0.00 in0.0 mm 0.00 in0.0 mm
03:10 PM 55.2°F12.9°C 42.4°F5.8°C 62% 3.5 mph NW5.6 kmh NW 5.8 mph9.3 kmh 30.27 in1025.1 mb - 0.00 in0.0 mm 0.00 in0.0 mm
03:20 PM 55.2°F12.9°C 42.4°F5.8°C 62% 3.5 mph SW5.6 kmh SW 4.6 mph7.4 kmh 30.27 in1025.1 mb - 0.00 in0.0 mm 0.00 in0.0 mm
03:30 PM 54.8°F12.7°C 42.9°F6.1°C 64% 1.1 mph SSE1.8 kmh SSE 3.5 mph5.6 kmh 30.27 in1025.1 mb - 0.00 in0.0 mm 0.00 in0.0 mm
03:40 PM 55.1°F12.8°C 43.1°F6.2°C 64% 3.5 mph SW5.6 kmh SW 9.2 mph14.8 kmh 30.27 in1025.1 mb - 0.00 in0.0 mm 0.00 in0.0 mm
03:50 PM 55.6°F13.1°C 43.6°F6.4°C 64% 3.5 mph SW5.6 kmh SW 6.9 mph11.1 kmh 30.27 in1025.1 mb - 0.00 in0.0 mm 0.00 in0.0 mm
04:00 PM 55.6°F13.1°C 43.6°F6.4°C 64% 6.9 mph WSW11.1 kmh WSW 11.5 mph18.5 kmh 30.27 in1025.1 mb - 0.00 in0.0 mm 0.00 in0.0 mm
04:10 PM 55.0°F12.8°C 43.4°F6.3°C 65% 5.8 mph WSW9.3 kmh WSW 5.8 mph9.3 kmh 30.27 in1025.1 mb - 0.00 in0.0 mm 0.00 in0.0 mm
04:20 PM 55.2°F12.9°C 43.6°F6.4°C 65% 6.9 mph WSW11.1 kmh WSW 10.4 mph16.7 kmh 30.27 in1025.1 mb - 0.00 in0.0 mm 0.00 in0.0 mm
04:30 PM 54.9°F12.7°C 43.8°F6.6°C 66% 3.5 mph WSW5.6 kmh WSW 6.9 mph11.1 kmh 30.27 in1025.1 mb - 0.00 in0.0 mm 0.00 in0.0 mm
04:40 PM 54.6°F12.6°C 43.9°F6.6°C 67% 2.3 mph WSW3.7 kmh WSW 5.8 mph9.3 kmh 30.27 in1025.1 mb - 0.00 in0.0 mm 0.00 in0.0 mm
04:50 PM 54.3°F12.4°C 44.0°F6.7°C 68% 1.1 mph SW1.8 kmh SW 3.5 mph5.6 kmh 30.27 in1025.1 mb - 0.00 in0.0 mm 0.00 in0.0 mm
05:00 PM 54.0°F12.2°C 44.4°F6.9°C 70% 1.1 mph SE1.8 kmh SE 1.1 mph1.8 kmh 30.27 in1025.1 mb - 0.00 in0.0 mm 0.00 in0.0 mm
05:10 PM 53.6°F12.0°C 44.4°F6.9°C 71% Calm Calm 1.1 mph1.8 kmh 30.27 in1025.1 mb - 0.00 in0.0 mm 0.00 in0.0 mm
05:20 PM 53.3°F11.8°C 44.5°F6.9°C 72% 1.1 mph N1.8 kmh N 3.5 mph5.6 kmh 30.27 in1025.1 mb - 0.00 in0.0 mm 0.00 in0.0 mm
05:30 PM 53.0°F11.7°C 44.6°F7.0°C 73% 2.3 mph WNW3.7 kmh WNW 2.3 mph3.7 kmh 30.27 in1025.1 mb - 0.00 in0.0 mm 0.00 in0.0 mm
05:40 PM 52.6°F11.4°C 44.5°F6.9°C 74% 3.5 mph WNW5.6 kmh WNW 8.1 mph13.0 kmh 30.27 in1025.1 mb - 0.00 in0.0 mm 0.00 in0.0 mm
05:50 PM 52.3°F11.3°C 44.6°F7.0°C 75% 3.5 mph NW5.6 kmh NW 4.6 mph7.4 kmh 30.27 in1025.1 mb - 0.00 in0.0 mm 0.00 in0.0 mm
06:00 PM 51.8°F11.0°C 44.5°F6.9°C 76% 3.5 mph W5.6 kmh W 6.9 mph11.1 kmh 30.28 in1025.4 mb - 0.00 in0.0 mm 0.00 in0.0 mm
06:10 PM 51.3°F10.7°C 44.3°F6.8°C 77% 4.6 mph SW7.4 kmh SW 6.9 mph11.1 kmh 30.28 in1025.4 mb - 0.00 in0.0 mm 0.00 in0.0 mm
06:20 PM 50.9°F10.5°C 44.2°F6.8°C 78% 2.3 mph SW3.7 kmh SW 3.5 mph5.6 kmh 30.28 in1025.4 mb - 0.00 in0.0 mm 0.00 in0.0 mm
06:30 PM 50.4°F10.2°C 43.8°F6.6°C 78% 1.1 mph S1.8 kmh S 1.1 mph1.8 kmh 30.29 in1025.7 mb - 0.00 in0.0 mm 0.00 in0.0 mm
06:40 PM 49.9°F9.9°C 43.7°F6.5°C 79% 1.1 mph S1.8 kmh S 3.5 mph5.6 kmh 30.29 in1025.7 mb - 0.00 in0.0 mm 0.00 in0.0 mm
06:50 PM 49.6°F9.8°C 43.6°F6.4°C 80% 3.5 mph NNE5.6 kmh NNE 4.6 mph7.4 kmh 30.29 in1025.7 mb - 0.00 in0.0 mm 0.00 in0.0 mm
07:00 PM 49.0°F9.4°C 43.4°F6.3°C 81% 1.1 mph NNE1.8 kmh NNE 2.3 mph3.7 kmh 30.30 in1026.1 mb - 0.00 in0.0 mm 0.00 in0.0 mm
07:10 PM 48.6°F9.2°C 43.0°F6.1°C 81% Calm Calm -- 30.30 in1026.1 mb - 0.00 in0.0 mm 0.00 in0.0 mm
07:20 PM 48.3°F9.1°C 43.1°F6.2°C 82% Calm Calm -- 30.30 in1026.1 mb - 0.00 in0.0 mm 0.00 in0.0 mm
07:30 PM 47.9°F8.8°C 42.7°F5.9°C 82% Calm Calm -- 30.30 in1026.1 mb - 0.00 in0.0 mm 0.00 in0.0 mm
07:40 PM 47.7°F8.7°C 42.8°F6.0°C 83% Calm Calm -- 30.30 in1026.1 mb - 0.00 in0.0 mm 0.00 in0.0 mm
07:50 PM 47.4°F8.6°C 42.5°F5.8°C 83% Calm Calm -- 30.30 in1026.1 mb - 0.00 in0.0 mm 0.00 in0.0 mm
08:00 PM 47.1°F8.4°C 42.5°F5.8°C 84% Calm Calm 1.1 mph1.8 kmh 30.30 in1026.1 mb - 0.00 in0.0 mm 0.00 in0.0 mm
08:10 PM 46.8°F8.2°C 42.5°F5.8°C 85% Calm Calm -- 30.31 in1026.4 mb - 0.00 in0.0 mm 0.00 in0.0 mm
08:20 PM 46.5°F8.1°C 42.2°F5.7°C 85% Calm Calm 2.3 mph3.7 kmh 30.31 in1026.4 mb - 0.00 in0.0 mm 0.00 in0.0 mm
08:30 PM 46.3°F7.9°C 42.1°F5.6°C 85% 1.1 mph NNE1.8 kmh NNE 1.1 mph1.8 kmh 30.31 in1026.4 mb - 0.00 in0.0 mm 0.00 in0.0 mm
08:40 PM 46.2°F7.9°C 42.2°F5.7°C 86% 1.1 mph NE1.8 kmh NE 3.5 mph5.6 kmh 30.32 in1026.8 mb - 0.00 in0.0 mm 0.00 in0.0 mm
08:50 PM 45.8°F7.7°C 41.9°F5.5°C 86% 3.5 mph NE5.6 kmh NE 4.6 mph7.4 kmh 30.32 in1026.8 mb - 0.00 in0.0 mm 0.00 in0.0 mm
09:00 PM 45.6°F7.6°C 42.0°F5.6°C 87% 6.9 mph NE11.1 kmh NE 10.4 mph16.7 kmh 30.32 in1026.8 mb - 0.00 in0.0 mm 0.00 in0.0 mm
09:10 PM 45.3°F7.4°C 41.7°F5.4°C 87% 5.8 mph NE9.3 kmh NE 9.2 mph14.8 kmh 30.33 in1027.1 mb - 0.00 in0.0 mm 0.00 in0.0 mm
09:20 PM 44.8°F7.1°C 41.2°F5.1°C 87% 6.9 mph NE11.1 kmh NE 8.1 mph13.0 kmh 30.33 in1027.1 mb - 0.00 in0.0 mm 0.00 in0.0 mm
09:30 PM 44.7°F7.1°C 41.4°F5.2°C 88% 10.4 mph E16.7 kmh E 13.8 mph22.2 kmh 30.34 in1027.4 mb - 0.00 in0.0 mm 0.00 in0.0 mm
09:40 PM 45.3°F7.4°C 42.2°F5.7°C 89% 11.5 mph ENE18.5 kmh ENE 11.5 mph18.5 kmh 30.34 in1027.4 mb - 0.00 in0.0 mm 0.00 in0.0 mm
09:50 PM 45.5°F7.5°C 42.8°F6.0°C 90% 8.1 mph NE13.0 kmh NE 9.2 mph14.8 kmh 30.34 in1027.4 mb - 0.00 in0.0 mm 0.00 in0.0 mm
10:00 PM 45.6°F7.6°C 42.8°F6.0°C 90% 9.2 mph ENE14.8 kmh ENE 11.5 mph18.5 kmh 30.34 in1027.4 mb - 0.00 in0.0 mm 0.00 in0.0 mm
10:10 PM 45.6°F7.6°C 42.8°F6.0°C 90% 4.6 mph NE7.4 kmh NE 6.9 mph11.1 kmh 30.34 in1027.4 mb - 0.00 in0.0 mm 0.00 in0.0 mm
10:20 PM 45.6°F7.6°C 42.9°F6.1°C 90% 8.1 mph NE13.0 kmh NE 11.5 mph18.5 kmh 30.34 in1027.4 mb - 0.00 in0.0 mm 0.00 in0.0 mm
10:30 PM 45.7°F7.6°C 42.7°F5.9°C 89% 3.5 mph NE5.6 kmh NE 5.8 mph9.3 kmh 30.34 in1027.4 mb - 0.00 in0.0 mm 0.00 in0.0 mm
10:40 PM 45.4°F7.4°C 42.3°F5.7°C 89% 2.3 mph NE3.7 kmh NE 3.5 mph5.6 kmh 30.34 in1027.4 mb - 0.00 in0.0 mm 0.00 in0.0 mm
10:50 PM 45.2°F7.3°C 42.2°F5.7°C 89% 2.3 mph NE3.7 kmh NE 3.5 mph5.6 kmh 30.34 in1027.4 mb - 0.00 in0.0 mm 0.00 in0.0 mm
11:00 PM 45.3°F7.4°C 42.5°F5.8°C 90% 6.9 mph E11.1 kmh E 10.4 mph16.7 kmh 30.34 in1027.4 mb - 0.00 in0.0 mm 0.00 in0.0 mm
11:10 PM 45.8°F7.7°C 43.0°F6.1°C 90% 8.1 mph E13.0 kmh E 9.2 mph14.8 kmh 30.34 in1027.4 mb - 0.00 in0.0 mm 0.00 in0.0 mm
11:20 PM 46.2°F7.9°C 43.4°F6.3°C 90% 4.6 mph ENE7.4 kmh ENE 4.6 mph7.4 kmh 30.33 in1027.1 mb - 0.00 in0.0 mm 0.00 in0.0 mm
11:30 PM 46.1°F7.8°C 43.3°F6.3°C 90% 3.5 mph NNE5.6 kmh NNE 5.8 mph9.3 kmh 30.33 in1027.1 mb - 0.00 in0.0 mm 0.00 in0.0 mm
11:40 PM 46.1°F7.8°C 43.3°F6.3°C 90% 3.5 mph NE5.6 kmh NE 3.5 mph5.6 kmh 30.33 in1027.1 mb - 0.00 in0.0 mm 0.00 in0.0 mm
11:50 PM 46.1°F7.8°C 43.3°F6.3°C 90% Calm Calm 1.1 mph1.8 kmh 30.33 in1027.1 mb - 0.00 in0.0 mm 0.00 in0.0 mm